Norwegian Crown — C6II4 — position and weather

sailwx.info

Track history (hours):
 
Tides and Currents Weather Stations Pressure Air Temp Water Temp Dewpoint Dewpoint Depression Visibility Wind Speed Wind Dir Waves Ship Positions

Norwegian Crown

Operator: Norwegian Cruise Line

Last reported at 2017-May-27 02:00 UTC. Time now 2017-May-27 02:18 UTC.
Position N 59°52' E 004°36'.

Type: Ship. MMSI: 308785000.

Date/timePositionNaut miles runAvg speedWind from/ knotsBaromVisibWave heightAir tempDewpointWater temp
2017-May-27 02:00N 59°52' E 004°36'611.9
2017-May-27 01:30N 59°46' E 004°36'612.0
2017-May-27 00:58N 59°40' E 004°35'613.6
2017-May-27 00:31N 59°33' E 004°35'816.7
2017-May-27 00:01N 59°25' E 004°37'816.1
2017-May-26 23:31N 59°17' E 004°39'815.3
2017-May-26 23:00N 59°11' E 004°47'815.5
2017-May-26 22:31N 59°07' E 005°01'816.5
2017-May-26 22:01N 59°06' E 005°17'815.9
2017-May-26 21:31N 59°06' E 005°32'713.8
2017-May-26 21:01N 59°02' E 005°43'713.0
2017-May-26 20:30N 58°59' E 005°54'714.3
2017-May-26 20:00N 58°54' E 006°05'612.3
2017-May-26 19:30N 58°59' E 006°12'1213.7
2017-May-26 18:39N 59°02' E 006°34'4 5.8
2017-May-26 18:00N 59°01' E 006°27'815.0
2017-May-26 17:30N 58°59' E 006°13'5 9.9
2017-May-26 17:00N 58°56' E 006°06'3 5.7
2017-May-26 16:30N 58°56' E 006°01'815.7
2017-May-26 16:01N 59°01' E 005°49'611.9
2017-May-26 15:31N 59°02' E 005°37'4 7.5
2017-May-26 15:00N 58°59' E 005°33'715.0
2017-May-26 14:30N 58°51' E 005°31'1110.8
2017-May-26 13:30N 58°47' E 005°12'611.5
2017-May-26 13:00N 58°43' E 005°03'612.9
2017-May-26 12:30N 58°40' E 004°53'713.0
2017-May-26 12:00N 58°36' E 004°43'714.2
2017-May-26 11:31N 58°32' E 004°32'815.5
2017-May-26 11:01N 58°27' E 004°20'1016.1
2017-May-26 10:22N 58°21' E 004°04'816.4
2017-May-26 09:54N 58°17' E 003°52'916.3
2017-May-26 09:21N 58°11' E 003°39'616.4
2017-May-26 09:01N 58°08' E 003°30'1316.7
2017-May-26 08:15N 58°00' E 003°10'516.8
2017-May-26 07:58N 57°58' E 003°03'816.9
2017-May-26 07:31N 57°53' E 002°51'12116.1
2017-May-25 23:58N 56°24' E 000°19'1315.9
2017-May-25 23:11N 56°14' E 000°07'416.2
2017-May-25 22:55N 56°10' E 000°03'716.5
2017-May-25 22:30N 56°04' W 000°03'916.7
2017-May-25 21:57N 55°57' W 000°12'816.9
2017-May-25 21:30N 55°50' W 000°20'1217.1
2017-May-25 20:48N 55°40' W 000°31'517.2
2017-May-25 20:30N 55°36' W 000°36'817.2
2017-May-25 20:01N 55°29' W 000°44'917.1
2017-May-25 19:31N 55°21' W 000°52'917.1
2017-May-25 19:01N 55°14' W 001°01'816.5
2017-May-25 18:30N 55°08' W 001°09'816.1
2017-May-25 18:01N 55°02' W 001°19'5 9.2
2017-May-25 17:30N 54°60' W 001°27'0 0.7
2017-May-25 17:00N 54°60' W 001°27'0 0.0
2017-May-25 16:28N 54°60' W 001°27'0 0.0
2017-May-25 15:58N 54°60' W 001°27'0 0.0
2017-May-25 15:28N 54°60' W 001°27'0 0.0
2017-May-25 14:58N 54°60' W 001°27'0 0.0
2017-May-25 13:58N 54°60' W 001°27'0 0.0
2017-May-25 13:28N 54°60' W 001°27'0 0.0
2017-May-25 12:58N 54°60' W 001°27'0 0.0
2017-May-25 12:28N 54°60' W 001°27'0 0.0
2017-May-25 11:58N 54°60' W 001°27'0 0.0
2017-May-25 11:28N 54°60' W 001°27'0 0.0
2017-May-25 10:58N 54°60' W 001°27'0 0.0
2017-May-25 10:28N 54°60' W 001°27'0 0.0
2017-May-25 09:58N 54°60' W 001°27'0 0.0
2017-May-25 09:28N 54°60' W 001°27'0 0.0
2017-May-25 08:58N 54°60' W 001°27'0 0.0
2017-May-25 08:30N 54°60' W 001°27'1 1.5
2017-May-25 08:00N 55°00' W 001°26'4 8.2
2017-May-25 07:30N 55°01' W 001°20'612.7
2017-May-25 07:01N 54°59' W 001°09'713.1
2017-May-25 06:30N 54°56' W 000°59'2115.6
2017-May-25 05:10N 54°44' W 000°30'215.2
2017-May-25 05:01N 54°42' W 000°26'714.8
2017-May-25 04:30N 54°38' W 000°16'714.5
2017-May-25 04:00N 54°33' W 000°07'714.4
2017-May-25 03:30N 54°28' E 000°02'714.5
2017-May-25 03:00N 54°23' E 000°11'714.6
2017-May-25 02:31N 54°18' E 000°20'1115.1
2017-May-25 01:49N 54°10' E 000°33'515.7
2017-May-25 01:29N 54°07' E 000°39'5416.9
2017-May-24 22:16N 53°30' E 001°46'717.2
2017-May-24 21:52N 53°25' E 001°54'616.8
2017-May-24 21:30N 53°20' E 002°01'916.0
2017-May-24 20:56N 53°14' E 002°12'2014.5
2017-May-24 19:32N 53°03' E 002°40'014.3
2017-May-24 19:31N 53°03' E 002°40'814.2
2017-May-24 18:55N 52°54' E 002°40'714.1
2017-May-24 18:24N 52°47' E 002°40'1114.4
2017-May-24 17:37N 52°36' E 002°41'5316.0
2017-May-24 14:17N 51°43' E 002°31'1317.4
2017-May-24 13:31N 51°33' E 002°17'918.0
2017-May-24 13:00N 51°26' E 002°07'917.9
2017-May-24 12:30N 51°19' E 001°58'918.4
2017-May-24 12:01N 51°12' E 001°48'918.8
2017-May-24 11:30N 51°05' E 001°38'713.5
2017-May-24 11:00N 51°06' E 001°28'510.6
2017-May-24 10:30N 51°07' E 001°19'0 0.1
2017-May-24 10:00N 51°07' E 001°19'0 0.0
2017-May-24 09:30N 51°07' E 001°19'0 0.0
2017-May-24 09:00N 51°07' E 001°19'0 0.0
2017-May-24 08:30N 51°07' E 001°19'0 0.0
2017-May-24 07:57N 51°07' E 001°19'0 0.0
2017-May-24 07:30N 51°07' E 001°19'0 0.0
2017-May-24 06:57N 51°07' E 001°19'0 0.0
2017-May-24 06:00N 51°07' E 001°19'0 0.0
2017-May-24 05:30N 51°07' E 001°19'0 0.5
2017-May-24 05:00N 51°07' E 001°19'4 7.0
2017-May-24 04:30N 51°07' E 001°25'510.9
2017-May-24 04:00N 51°08' E 001°34'714.5
2017-May-24 03:30N 51°13' E 001°43'815.9
2017-May-24 03:00N 51°19' E 001°50'713.4
2017-May-24 02:30N 51°25' E 001°55'5 9.8
2017-May-24 02:00N 51°29' E 001°60'5 9.6
2017-May-24 01:30N 51°32' E 002°05'5 9.4
2017-May-24 01:00N 51°36' E 002°10'5 9.3
2017-May-24 00:30N 51°39' E 002°15'4 8.9
2017-May-24 00:01N 51°43' E 002°20'1613.4
2017-May-23 22:51N 51°56' E 002°34'2715.6
2017-May-23 21:08N 52°22' E 002°37'216.6
2017-May-23 21:00N 52°25' E 002°37'916.9
2017-May-23 20:29N 52°33' E 002°38'817.0
2017-May-23 19:59N 52°42' E 002°39'817.1
2017-May-23 19:30N 52°50' E 002°39'1217.2
2017-May-23 18:47N 53°02' E 002°38'27316.0
2017-May-23 01:45N 57°32' E 003°56'415.3
2017-May-23 01:29N 57°36' E 003°56'715.5
2017-May-23 01:00N 57°43' E 003°57'815.8
2017-May-23 00:30N 57°51' E 003°57'815.8
2017-May-23 00:01N 57°59' E 003°58'815.7
2017-May-22 23:30N 58°07' E 003°59'815.9
2017-May-22 23:01N 58°15' E 003°59'815.9
2017-May-22 22:30N 58°23' E 003°59'816.0
2017-May-22 22:00N 58°31' E 003°60'815.5
2017-May-22 21:31N 58°38' E 004°01'815.4
2017-May-22 21:01N 58°46' E 004°02'815.2
2017-May-22 20:31N 58°54' E 004°03'815.1
2017-May-22 20:00N 59°01' E 004°02'815.6
2017-May-22 19:30N 59°09' E 004°03'815.8
2017-May-22 19:01N 59°17' E 004°05'4315.1
2017-May-22 16:09N 59°57' E 004°34'215.3
2017-May-22 16:00N 59°59' E 004°37'815.5
2017-May-22 15:30N 60°05' E 004°47'815.2
2017-May-22 15:00N 60°09' E 005°01'1212.0
2017-May-22 14:00N 60°19' E 005°12'510.3
2017-May-22 13:30N 60°24' E 005°14'2 4.4
2017-May-22 13:00N 60°24' E 005°19'0 0.0
2017-May-22 12:30N 60°24' E 005°19'0 0.0
2017-May-22 12:00N 60°24' E 005°19'0 0.0
2017-May-22 11:30N 60°24' E 005°19'0 0.0
2017-May-22 11:00N 60°24' E 005°19'0 0.0
2017-May-22 10:30N 60°24' E 005°19'0 0.0
2017-May-22 10:00N 60°24' E 005°19'0 0.0
2017-May-22 09:30N 60°24' E 005°19'0 0.0
2017-May-22 09:00N 60°24' E 005°19'0 0.0
2017-May-22 08:30N 60°24' E 005°19'0 0.0
2017-May-22 08:00N 60°24' E 005°19'0 0.0
2017-May-22 07:30N 60°24' E 005°19'0 0.0
2017-May-22 07:00N 60°24' E 005°19'0 0.0
2017-May-22 06:30N 60°24' E 005°19'0 0.0
2017-May-22 06:00N 60°24' E 005°19'0 0.0
2017-May-22 05:30N 60°24' E 005°19'0 0.9
2017-May-22 05:00N 60°24' E 005°18'4 7.5
2017-May-22 04:30N 60°23' E 005°11'510.8
2017-May-22 04:00N 60°26' E 005°02'611.9
2017-May-22 03:30N 60°32' E 004°57'815.1
2017-May-22 03:00N 60°39' E 004°51'815.6
2017-May-22 02:29N 60°45' E 004°41'715.2
2017-May-22 02:00N 60°50' E 004°29'714.5
2017-May-22 01:30N 60°56' E 004°23'714.8
2017-May-22 01:00N 61°04' E 004°20'815.0
2017-May-22 00:30N 61°11' E 004°20'815.3
2017-May-22 00:00N 61°19' E 004°21'815.5
2017-May-21 23:30N 61°26' E 004°22'815.7
2017-May-21 23:00N 61°34' E 004°23'815.9
2017-May-21 22:30N 61°42' E 004°24'816.1
2017-May-21 21:59N 61°50' E 004°29'816.2
2017-May-21 21:30N 61°58' E 004°34'816.1
2017-May-21 21:00N 62°05' E 004°41'816.2
2017-May-21 20:30N 62°12' E 004°49'816.4
2017-May-21 20:00N 62°18' E 005°00'816.2
2017-May-21 19:30N 62°25' E 005°12'815.8
2017-May-21 19:00N 62°30' E 005°24'816.2
2017-May-21 18:30N 62°30' E 005°42'816.4
2017-May-21 18:00N 62°27' E 005°58'815.4
2017-May-21 17:30N 62°23' E 006°12'816.3
2017-May-21 17:00N 62°25' E 006°29'815.9
2017-May-21 16:30N 62°27' E 006°46'713.9
2017-May-21 16:00N 62°22' E 006°55'815.8
2017-May-21 15:30N 62°14' E 007°01'815.6
2017-May-21 15:00N 62°07' E 006°57'5 8.9
2017-May-21 14:30N 62°07' E 007°07'3 2.5
2017-May-21 13:30N 62°06' E 007°12'0 0.0
2017-May-21 13:00N 62°06' E 007°12'0 0.0
2017-May-21 12:30N 62°06' E 007°12'0 0.0
2017-May-21 11:58N 62°06' E 007°12'0 0.0
2017-May-21 11:28N 62°06' E 007°12'0 0.0
2017-May-21 10:58N 62°06' E 007°12'0 0.0
2017-May-21 10:28N 62°06' E 007°12'0 0.0
2017-May-21 09:58N 62°06' E 007°12'0 0.0
2017-May-21 09:28N 62°06' E 007°12'0 0.0
2017-May-21 08:58N 62°06' E 007°12'0 0.0
2017-May-21 08:28N 62°06' E 007°12'0 0.0
2017-May-21 07:58N 62°06' E 007°12'0 0.0
2017-May-21 07:28N 62°06' E 007°12'0 0.0
2017-May-21 06:55N 62°06' E 007°12'0 0.0
2017-May-21 06:28N 62°06' E 007°12'0 0.0
2017-May-21 05:58N 62°06' E 007°12'0 0.0
2017-May-21 05:28N 62°06' E 007°12'0 0.0
2017-May-21 05:00N 62°06' E 007°12'0 0.3
2017-May-21 04:30N 62°06' E 007°12'4 8.0
2017-May-21 04:00N 62°06' E 007°03'4 7.6
2017-May-21 03:30N 62°09' E 006°58'5 9.8
2017-May-21 03:00N 62°13' E 007°02'510.8
2017-May-21 02:30N 62°18' E 006°59'610.9
2017-May-21 02:00N 62°24' E 006°55'510.5
2017-May-21 01:30N 62°27' E 006°47'611.4
2017-May-21 01:00N 62°26' E 006°35'611.8
2017-May-21 00:30N 62°24' E 006°23'611.4
2017-May-21 00:00N 62°23' E 006°11'713.4
2017-May-20 23:30N 62°27' E 005°59'816.6
2017-May-20 23:00N 62°30' E 005°43'816.5
2017-May-20 22:30N 62°29' E 005°25'816.0
2017-May-20 22:00N 62°25' E 005°10'816.4
2017-May-20 21:30N 62°19' E 004°58'816.3
2017-May-20 21:00N 62°13' E 004°47'815.7
2017-May-20 20:30N 62°05' E 004°43'714.5
2017-May-20 20:00N 61°59' E 004°52'712.9
2017-May-20 19:30N 61°55' E 005°03'714.6
2017-May-20 19:00N 61°54' E 005°19'714.8
2017-May-20 18:31N 61°55' E 005°34'5 0.4
2017-May-20 03:42N 61°53' E 005°44'315.6
2017-May-20 03:31N 61°54' E 005°39'815.3
2017-May-20 03:00N 61°55' E 005°23'714.4
2017-May-20 02:30N 61°55' E 005°07'612.9
2017-May-20 02:00N 61°58' E 004°56'714.8
2017-May-20 01:30N 61°57' E 004°41'714.4
2017-May-20 01:00N 61°51' E 004°31'715.1
2017-May-20 00:30N 61°45' E 004°24'815.3
2017-May-20 00:00N 61°37' E 004°23'815.7
2017-May-19 23:30N 61°29' E 004°22'815.9
2017-May-19 23:00N 61°21' E 004°21'815.8
2017-May-19 22:30N 61°15' E 004°29'815.2
2017-May-19 22:00N 61°15' E 004°45'815.1
2017-May-19 21:30N 61°12' E 004°60'611.1
2017-May-19 21:00N 61°08' E 005°08'612.2
2017-May-19 20:30N 61°05' E 005°18'713.4
2017-May-19 20:00N 61°05' E 005°32'816.4
2017-May-19 19:30N 61°08' E 005°48'816.3
2017-May-19 19:00N 61°08' E 006°05'816.3
2017-May-19 18:30N 61°06' E 006°21'714.5
2017-May-19 18:00N 61°09' E 006°35'713.6
2017-May-19 17:30N 61°09' E 006°49'815.7
2017-May-19 17:00N 61°04' E 007°01'612.7
2017-May-19 16:30N 60°58' E 006°59'2 3.7
2017-May-19 16:00N 60°59' E 007°02'611.2
2017-May-19 15:30N 60°55' E 007°10'3 6.6
2017-May-19 15:00N 60°52' E 007°07'0 0.1
2017-May-19 13:58N 60°52' E 007°07'0 0.0
2017-May-19 13:28N 60°52' E 007°07'0 0.0
2017-May-19 12:58N 60°52' E 007°07'0 0.0
2017-May-19 12:28N 60°52' E 007°07'0 0.0
2017-May-19 11:58N 60°52' E 007°07'0 0.0
2017-May-19 11:28N 60°52' E 007°07'0 0.0
2017-May-19 10:58N 60°52' E 007°07'0 0.0
2017-May-19 10:28N 60°52' E 007°07'0 0.0
2017-May-19 09:58N 60°52' E 007°07'0 0.0
2017-May-19 09:28N 60°52' E 007°07'0 0.0
2017-May-19 08:58N 60°52' E 007°07'0 0.0
2017-May-19 08:28N 60°52' E 007°07'0 0.0
2017-May-19 07:58N 60°52' E 007°07'0 0.0
2017-May-19 07:28N 60°52' E 007°07'0 0.0
2017-May-19 06:58N 60°52' E 007°07'0 0.0
2017-May-19 06:28N 60°52' E 007°07'0 0.0
2017-May-19 05:58N 60°52' E 007°07'0 0.0
2017-May-19 05:30N 60°52' E 007°07'1 2.7
2017-May-19 05:00N 60°53' E 007°08'5 9.5
2017-May-19 04:30N 60°58' E 007°06'816.0
2017-May-19 04:00N 61°05' E 007°00'714.6
2017-May-19 03:30N 61°10' E 006°49'815.1
2017-May-19 03:00N 61°08' E 006°34'816.6
2017-May-19 02:30N 61°07' E 006°17'918.2
2017-May-19 02:00N 61°08' E 005°58'917.8
2017-May-19 01:30N 61°07' E 005°40'917.6
2017-May-19 01:00N 61°04' E 005°23'816.7
2017-May-19 00:30N 61°05' E 005°06'917.2
2017-May-19 00:00N 61°01' E 004°51'816.5
2017-May-18 23:30N 60°55' E 004°40'816.2
2017-May-18 23:00N 60°48' E 004°29'917.6
2017-May-18 22:30N 60°40' E 004°32'917.8
2017-May-18 22:00N 60°31' E 004°37'918.1
2017-May-18 21:30N 60°22' E 004°41'917.8
2017-May-18 21:00N 60°14' E 004°46'816.8
2017-May-18 20:30N 60°09' E 004°60'816.1
2017-May-18 20:00N 60°10' E 005°16'816.8
2017-May-18 19:30N 60°02' E 005°20'816.0
2017-May-18 19:00N 59°55' E 005°30'714.0
2017-May-18 18:30N 59°49' E 005°35'612.7
2017-May-18 18:00N 59°53' E 005°43'917.2
2017-May-18 17:30N 60°00' E 005°54'917.2
2017-May-18 17:00N 60°07' E 006°05'815.2
2017-May-18 16:30N 60°14' E 006°09'816.4
2017-May-18 16:00N 60°21' E 006°18'816.3
2017-May-18 15:31N 60°26' E 006°31'612.0
2017-May-18 15:00N 60°26' E 006°43'10 7.9
2017-May-18 13:44N 60°34' E 006°55'0 0.1
2017-May-18 13:20N 60°34' E 006°55'0 0.0
2017-May-18 12:38N 60°34' E 006°55'0 0.1
2017-May-18 12:26N 60°34' E 006°55'0 0.0
2017-May-18 11:56N 60°34' E 006°55'0 0.0
2017-May-18 11:23N 60°34' E 006°55'0 0.0
2017-May-18 10:59N 60°34' E 006°55'0 0.0
2017-May-18 10:29N 60°34' E 006°55'0 0.0
2017-May-18 09:53N 60°34' E 006°55'0 0.0
2017-May-18 09:29N 60°34' E 006°55'0 0.0
2017-May-18 08:50N 60°34' E 006°55'0 0.0
2017-May-18 08:29N 60°34' E 006°55'0 0.0
2017-May-18 07:50N 60°34' E 006°55'0 0.0
2017-May-18 07:26N 60°34' E 006°55'0 0.0
2017-May-18 06:59N 60°34' E 006°55'0 0.0
2017-May-18 05:11N 60°34' E 006°55'0 0.0
2017-May-18 04:59N 60°34' E 006°55'2 4.6
2017-May-18 04:30N 60°31' E 006°55'5 9.6
2017-May-18 04:00N 60°28' E 006°48'5 9.9
2017-May-18 03:30N 60°25' E 006°40'5 9.2
2017-May-18 03:00N 60°26' E 006°31'510.1
2017-May-18 02:30N 60°23' E 006°22'510.3
2017-May-18 02:00N 60°19' E 006°15'510.2
2017-May-18 01:29N 60°15' E 006°10'5 9.4
2017-May-18 01:00N 60°11' E 006°04'510.4
2017-May-18 00:30N 60°06' E 006°05'510.4
2017-May-18 00:00N 60°02' E 005°57'510.0
2017-May-17 23:30N 59°59' E 005°51'510.0
2017-May-17 23:00N 59°55' E 005°45'510.5
2017-May-17 22:30N 59°50' E 005°39'611.8
2017-May-17 22:00N 59°45' E 005°32'612.3
2017-May-17 21:30N 59°41' E 005°24'612.0
2017-May-17 21:00N 59°36' E 005°16'611.4
2017-May-17 20:30N 59°31' E 005°13'611.1
2017-May-17 20:00N 59°25' E 005°10'611.1
2017-May-17 19:30N 59°20' E 005°06'611.9
2017-May-17 18:57N 59°14' E 005°06'512.4
2017-May-17 18:30N 59°08' E 005°07'510.8
2017-May-17 18:00N 59°07' E 005°17'611.0
2017-May-17 17:30N 59°06' E 005°28'510.1
2017-May-17 17:00N 59°03' E 005°35'611.8
2017-May-17 16:30N 59°02' E 005°47'0 0.9
2017-May-17 16:00N 59°02' E 005°46'4 7.3
2017-May-17 15:30N 58°58' E 005°44'0 0.2
2017-May-17 14:59N 58°58' E 005°44'0 0.0
2017-May-17 13:59N 58°58' E 005°44'0 0.0
2017-May-17 13:29N 58°58' E 005°44'0 0.0
2017-May-17 12:59N 58°58' E 005°44'0 0.0
2017-May-17 12:29N 58°58' E 005°44'0 0.0
2017-May-17 11:59N 58°58' E 005°44'0 0.0
2017-May-17 11:29N 58°58' E 005°44'0 0.0
2017-May-17 10:59N 58°58' E 005°44'0 0.0
2017-May-17 10:29N 58°58' E 005°44'0 0.0
2017-May-17 09:59N 58°58' E 005°44'0 0.0
2017-May-17 09:29N 58°58' E 005°44'0 0.0
2017-May-17 08:59N 58°58' E 005°44'0 0.0
2017-May-17 08:29N 58°58' E 005°44'0 0.0
2017-May-17 07:59N 58°58' E 005°44'0 0.0
2017-May-17 07:29N 58°58' E 005°44'0 0.0
2017-May-17 06:59N 58°58' E 005°44'0 0.3
2017-May-17 06:31N 58°59' E 005°44'2 3.4
2017-May-17 06:00N 58°60' E 005°42'1 1.2
2017-May-17 05:31N 59°00' E 005°41'0 0.9
2017-May-17 05:01N 59°01' E 005°41'3 5.1
2017-May-17 04:31N 59°02' E 005°37'4 8.5
2017-May-17 04:00N 58°58' E 005°33'714.1
2017-May-17 03:31N 58°51' E 005°31'510.2
2017-May-17 03:01N 58°49' E 005°22'510.5
2017-May-17 02:30N 58°44' E 005°17'611.2
2017-May-17 02:01N 58°39' E 005°12'  
Track history (hours):
 
Tides and Currents Weather Stations Pressure Air Temp Water Temp Dewpoint Dewpoint Depression Visibility Wind Speed Wind Dir Waves Ship Positions

Norwegian Crown

Operator: Norwegian Cruise Line

Last reported at 2017-May-27 02:00 UTC. Time now 2017-May-27 02:18 UTC.
Position N 59°52' E 004°36'.

Type: Ship. MMSI: 308785000.

Date/timePositionNaut miles runAvg speedWind from/ knotsBaromVisibWave heightAir tempDewpointWater temp
2017-May-27 02:00N 59°52' E 004°36'611.9
2017-May-27 01:30N 59°46' E 004°36'612.0
2017-May-27 00:58N 59°40' E 004°35'613.6
2017-May-27 00:31N 59°33' E 004°35'816.7
2017-May-27 00:01N 59°25' E 004°37'816.1
2017-May-26 23:31N 59°17' E 004°39'815.3
2017-May-26 23:00N 59°11' E 004°47'815.5
2017-May-26 22:31N 59°07' E 005°01'816.5
2017-May-26 22:01N 59°06' E 005°17'815.9
2017-May-26 21:31N 59°06' E 005°32'713.8
2017-May-26 21:01N 59°02' E 005°43'713.0
2017-May-26 20:30N 58°59' E 005°54'714.3
2017-May-26 20:00N 58°54' E 006°05'612.3
2017-May-26 19:30N 58°59' E 006°12'1213.7
2017-May-26 18:39N 59°02' E 006°34'4 5.8
2017-May-26 18:00N 59°01' E 006°27'815.0
2017-May-26 17:30N 58°59' E 006°13'5 9.9
2017-May-26 17:00N 58°56' E 006°06'3 5.7
2017-May-26 16:30N 58°56' E 006°01'815.7
2017-May-26 16:01N 59°01' E 005°49'611.9
2017-May-26 15:31N 59°02' E 005°37'4 7.5
2017-May-26 15:00N 58°59' E 005°33'715.0
2017-May-26 14:30N 58°51' E 005°31'1110.8
2017-May-26 13:30N 58°47' E 005°12'611.5
2017-May-26 13:00N 58°43' E 005°03'612.9
2017-May-26 12:30N 58°40' E 004°53'713.0
2017-May-26 12:00N 58°36' E 004°43'714.2
2017-May-26 11:31N 58°32' E 004°32'815.5
2017-May-26 11:01N 58°27' E 004°20'1016.1
2017-May-26 10:22N 58°21' E 004°04'816.4
2017-May-26 09:54N 58°17' E 003°52'916.3
2017-May-26 09:21N 58°11' E 003°39'616.4
2017-May-26 09:01N 58°08' E 003°30'1316.7
2017-May-26 08:15N 58°00' E 003°10'516.8
2017-May-26 07:58N 57°58' E 003°03'816.9
2017-May-26 07:31N 57°53' E 002°51'12116.1
2017-May-25 23:58N 56°24' E 000°19'1315.9
2017-May-25 23:11N 56°14' E 000°07'416.2
2017-May-25 22:55N 56°10' E 000°03'716.5
2017-May-25 22:30N 56°04' W 000°03'916.7
2017-May-25 21:57N 55°57' W 000°12'816.9
2017-May-25 21:30N 55°50' W 000°20'1217.1
2017-May-25 20:48N 55°40' W 000°31'517.2
2017-May-25 20:30N 55°36' W 000°36'817.2
2017-May-25 20:01N 55°29' W 000°44'917.1
2017-May-25 19:31N 55°21' W 000°52'917.1
2017-May-25 19:01N 55°14' W 001°01'816.5
2017-May-25 18:30N 55°08' W 001°09'816.1
2017-May-25 18:01N 55°02' W 001°19'5 9.2
2017-May-25 17:30N 54°60' W 001°27'0 0.7
2017-May-25 17:00N 54°60' W 001°27'0 0.0
2017-May-25 16:28N 54°60' W 001°27'0 0.0
2017-May-25 15:58N 54°60' W 001°27'0 0.0
2017-May-25 15:28N 54°60' W 001°27'0 0.0
2017-May-25 14:58N 54°60' W 001°27'0 0.0
2017-May-25 13:58N 54°60' W 001°27'0 0.0
2017-May-25 13:28N 54°60' W 001°27'0 0.0
2017-May-25 12:58N 54°60' W 001°27'0 0.0
2017-May-25 12:28N 54°60' W 001°27'0 0.0
2017-May-25 11:58N 54°60' W 001°27'0 0.0
2017-May-25 11:28N 54°60' W 001°27'0 0.0
2017-May-25 10:58N 54°60' W 001°27'0 0.0
2017-May-25 10:28N 54°60' W 001°27'0 0.0
2017-May-25 09:58N 54°60' W 001°27'0 0.0
2017-May-25 09:28N 54°60' W 001°27'0 0.0
2017-May-25 08:58N 54°60' W 001°27'0 0.0
2017-May-25 08:30N 54°60' W 001°27'1 1.5
2017-May-25 08:00N 55°00' W 001°26'4 8.2
2017-May-25 07:30N 55°01' W 001°20'612.7
2017-May-25 07:01N 54°59' W 001°09'713.1
2017-May-25 06:30N 54°56' W 000°59'2115.6
2017-May-25 05:10N 54°44' W 000°30'215.2
2017-May-25 05:01N 54°42' W 000°26'714.8
2017-May-25 04:30N 54°38' W 000°16'714.5
2017-May-25 04:00N 54°33' W 000°07'714.4
2017-May-25 03:30N 54°28' E 000°02'714.5
2017-May-25 03:00N 54°23' E 000°11'714.6
2017-May-25 02:31N 54°18' E 000°20'1115.1
2017-May-25 01:49N 54°10' E 000°33'515.7
2017-May-25 01:29N 54°07' E 000°39'5416.9
2017-May-24 22:16N 53°30' E 001°46'717.2
2017-May-24 21:52N 53°25' E 001°54'616.8
2017-May-24 21:30N 53°20' E 002°01'916.0
2017-May-24 20:56N 53°14' E 002°12'2014.5
2017-May-24 19:32N 53°03' E 002°40'014.3
2017-May-24 19:31N 53°03' E 002°40'814.2
2017-May-24 18:55N 52°54' E 002°40'714.1
2017-May-24 18:24N 52°47' E 002°40'1114.4
2017-May-24 17:37N 52°36' E 002°41'5316.0
2017-May-24 14:17N 51°43' E 002°31'1317.4
2017-May-24 13:31N 51°33' E 002°17'918.0
2017-May-24 13:00N 51°26' E 002°07'917.9
2017-May-24 12:30N 51°19' E 001°58'918.4
2017-May-24 12:01N 51°12' E 001°48'918.8
2017-May-24 11:30N 51°05' E 001°38'713.5
2017-May-24 11:00N 51°06' E 001°28'510.6
2017-May-24 10:30N 51°07' E 001°19'0 0.1
2017-May-24 10:00N 51°07' E 001°19'0 0.0
2017-May-24 09:30N 51°07' E 001°19'0 0.0
2017-May-24 09:00N 51°07' E 001°19'0 0.0
2017-May-24 08:30N 51°07' E 001°19'0 0.0
2017-May-24 07:57N 51°07' E 001°19'0 0.0
2017-May-24 07:30N 51°07' E 001°19'0 0.0
2017-May-24 06:57N 51°07' E 001°19'0 0.0
2017-May-24 06:00N 51°07' E 001°19'0 0.0
2017-May-24 05:30N 51°07' E 001°19'0 0.5
2017-May-24 05:00N 51°07' E 001°19'4 7.0
2017-May-24 04:30N 51°07' E 001°25'510.9
2017-May-24 04:00N 51°08' E 001°34'714.5
2017-May-24 03:30N 51°13' E 001°43'815.9
2017-May-24 03:00N 51°19' E 001°50'713.4
2017-May-24 02:30N 51°25' E 001°55'5 9.8
2017-May-24 02:00N 51°29' E 001°60'5 9.6
2017-May-24 01:30N 51°32' E 002°05'5 9.4
2017-May-24 01:00N 51°36' E 002°10'5 9.3
2017-May-24 00:30N 51°39' E 002°15'4 8.9
2017-May-24 00:01N 51°43' E 002°20'1613.4
2017-May-23 22:51N 51°56' E 002°34'2715.6
2017-May-23 21:08N 52°22' E 002°37'216.6
2017-May-23 21:00N 52°25' E 002°37'916.9
2017-May-23 20:29N 52°33' E 002°38'817.0
2017-May-23 19:59N 52°42' E 002°39'817.1
2017-May-23 19:30N 52°50' E 002°39'1217.2
2017-May-23 18:47N 53°02' E 002°38'27316.0
2017-May-23 01:45N 57°32' E 003°56'415.3
2017-May-23 01:29N 57°36' E 003°56'715.5
2017-May-23 01:00N 57°43' E 003°57'815.8
2017-May-23 00:30N 57°51' E 003°57'815.8
2017-May-23 00:01N 57°59' E 003°58'815.7
2017-May-22 23:30N 58°07' E 003°59'815.9
2017-May-22 23:01N 58°15' E 003°59'815.9
2017-May-22 22:30N 58°23' E 003°59'816.0
2017-May-22 22:00N 58°31' E 003°60'815.5
2017-May-22 21:31N 58°38' E 004°01'815.4
2017-May-22 21:01N 58°46' E 004°02'815.2
2017-May-22 20:31N 58°54' E 004°03'815.1
2017-May-22 20:00N 59°01' E 004°02'815.6
2017-May-22 19:30N 59°09' E 004°03'815.8
2017-May-22 19:01N 59°17' E 004°05'4315.1
2017-May-22 16:09N 59°57' E 004°34'215.3
2017-May-22 16:00N 59°59' E 004°37'815.5
2017-May-22 15:30N 60°05' E 004°47'815.2
2017-May-22 15:00N 60°09' E 005°01'1212.0
2017-May-22 14:00N 60°19' E 005°12'510.3
2017-May-22 13:30N 60°24' E 005°14'2 4.4
2017-May-22 13:00N 60°24' E 005°19'0 0.0
2017-May-22 12:30N 60°24' E 005°19'0 0.0
2017-May-22 12:00N 60°24' E 005°19'0 0.0
2017-May-22 11:30N 60°24' E 005°19'0 0.0
2017-May-22 11:00N 60°24' E 005°19'0 0.0
2017-May-22 10:30N 60°24' E 005°19'0 0.0
2017-May-22 10:00N 60°24' E 005°19'0 0.0
2017-May-22 09:30N 60°24' E 005°19'0 0.0
2017-May-22 09:00N 60°24' E 005°19'0 0.0
2017-May-22 08:30N 60°24' E 005°19'0 0.0
2017-May-22 08:00N 60°24' E 005°19'0 0.0
2017-May-22 07:30N 60°24' E 005°19'0 0.0
2017-May-22 07:00N 60°24' E 005°19'0 0.0
2017-May-22 06:30N 60°24' E 005°19'0 0.0
2017-May-22 06:00N 60°24' E 005°19'0 0.0
2017-May-22 05:30N 60°24' E 005°19'0 0.9
2017-May-22 05:00N 60°24' E 005°18'4 7.5
2017-May-22 04:30N 60°23' E 005°11'510.8
2017-May-22 04:00N 60°26' E 005°02'611.9
2017-May-22 03:30N 60°32' E 004°57'815.1
2017-May-22 03:00N 60°39' E 004°51'815.6
2017-May-22 02:29N 60°45' E 004°41'715.2
2017-May-22 02:00N 60°50' E 004°29'714.5
2017-May-22 01:30N 60°56' E 004°23'714.8
2017-May-22 01:00N 61°04' E 004°20'815.0
2017-May-22 00:30N 61°11' E 004°20'815.3
2017-May-22 00:00N 61°19' E 004°21'815.5
2017-May-21 23:30N 61°26' E 004°22'815.7
2017-May-21 23:00N 61°34' E 004°23'815.9
2017-May-21 22:30N 61°42' E 004°24'816.1
2017-May-21 21:59N 61°50' E 004°29'816.2
2017-May-21 21:30N 61°58' E 004°34'816.1
2017-May-21 21:00N 62°05' E 004°41'816.2
2017-May-21 20:30N 62°12' E 004°49'816.4
2017-May-21 20:00N 62°18' E 005°00'816.2
2017-May-21 19:30N 62°25' E 005°12'815.8
2017-May-21 19:00N 62°30' E 005°24'816.2
2017-May-21 18:30N 62°30' E 005°42'816.4
2017-May-21 18:00N 62°27' E 005°58'815.4
2017-May-21 17:30N 62°23' E 006°12'816.3
2017-May-21 17:00N 62°25' E 006°29'815.9
2017-May-21 16:30N 62°27' E 006°46'713.9
2017-May-21 16:00N 62°22' E 006°55'815.8
2017-May-21 15:30N 62°14' E 007°01'815.6
2017-May-21 15:00N 62°07' E 006°57'5 8.9
2017-May-21 14:30N 62°07' E 007°07'3 2.5
2017-May-21 13:30N 62°06' E 007°12'0 0.0
2017-May-21 13:00N 62°06' E 007°12'0 0.0
2017-May-21 12:30N 62°06' E 007°12'0 0.0
2017-May-21 11:58N 62°06' E 007°12'0 0.0
2017-May-21 11:28N 62°06' E 007°12'0 0.0
2017-May-21 10:58N 62°06' E 007°12'0 0.0
2017-May-21 10:28N 62°06' E 007°12'0 0.0
2017-May-21 09:58N 62°06' E 007°12'0 0.0
2017-May-21 09:28N 62°06' E 007°12'0 0.0
2017-May-21 08:58N 62°06' E 007°12'0 0.0
2017-May-21 08:28N 62°06' E 007°12'0 0.0
2017-May-21 07:58N 62°06' E 007°12'0 0.0
2017-May-21 07:28N 62°06' E 007°12'0 0.0
2017-May-21 06:55N 62°06' E 007°12'0 0.0
2017-May-21 06:28N 62°06' E 007°12'0 0.0
2017-May-21 05:58N 62°06' E 007°12'0 0.0
2017-May-21 05:28N 62°06' E 007°12'0 0.0
2017-May-21 05:00N 62°06' E 007°12'0 0.3
2017-May-21 04:30N 62°06' E 007°12'4 8.0
2017-May-21 04:00N 62°06' E 007°03'4 7.6
2017-May-21 03:30N 62°09' E 006°58'5 9.8
2017-May-21 03:00N 62°13' E 007°02'510.8
2017-May-21 02:30N 62°18' E 006°59'610.9
2017-May-21 02:00N 62°24' E 006°55'510.5
2017-May-21 01:30N 62°27' E 006°47'611.4
2017-May-21 01:00N 62°26' E 006°35'611.8
2017-May-21 00:30N 62°24' E 006°23'611.4
2017-May-21 00:00N 62°23' E 006°11'713.4
2017-May-20 23:30N 62°27' E 005°59'816.6
2017-May-20 23:00N 62°30' E 005°43'816.5
2017-May-20 22:30N 62°29' E 005°25'816.0
2017-May-20 22:00N 62°25' E 005°10'816.4
2017-May-20 21:30N 62°19' E 004°58'816.3
2017-May-20 21:00N 62°13' E 004°47'815.7
2017-May-20 20:30N 62°05' E 004°43'714.5
2017-May-20 20:00N 61°59' E 004°52'712.9
2017-May-20 19:30N 61°55' E 005°03'714.6
2017-May-20 19:00N 61°54' E 005°19'714.8
2017-May-20 18:31N 61°55' E 005°34'5 0.4
2017-May-20 03:42N 61°53' E 005°44'315.6
2017-May-20 03:31N 61°54' E 005°39'815.3
2017-May-20 03:00N 61°55' E 005°23'714.4
2017-May-20 02:30N 61°55' E 005°07'612.9
2017-May-20 02:00N 61°58' E 004°56'714.8
2017-May-20 01:30N 61°57' E 004°41'714.4
2017-May-20 01:00N 61°51' E 004°31'715.1
2017-May-20 00:30N 61°45' E 004°24'815.3
2017-May-20 00:00N 61°37' E 004°23'815.7
2017-May-19 23:30N 61°29' E 004°22'815.9
2017-May-19 23:00N 61°21' E 004°21'815.8
2017-May-19 22:30N 61°15' E 004°29'815.2
2017-May-19 22:00N 61°15' E 004°45'815.1
2017-May-19 21:30N 61°12' E 004°60'611.1
2017-May-19 21:00N 61°08' E 005°08'612.2
2017-May-19 20:30N 61°05' E 005°18'713.4
2017-May-19 20:00N 61°05' E 005°32'816.4
2017-May-19 19:30N 61°08' E 005°48'816.3
2017-May-19 19:00N 61°08' E 006°05'816.3
2017-May-19 18:30N 61°06' E 006°21'714.5
2017-May-19 18:00N 61°09' E 006°35'713.6
2017-May-19 17:30N 61°09' E 006°49'815.7
2017-May-19 17:00N 61°04' E 007°01'612.7
2017-May-19 16:30N 60°58' E 006°59'2 3.7
2017-May-19 16:00N 60°59' E 007°02'611.2
2017-May-19 15:30N 60°55' E 007°10'3 6.6
2017-May-19 15:00N 60°52' E 007°07'0 0.1
2017-May-19 13:58N 60°52' E 007°07'0 0.0
2017-May-19 13:28N 60°52' E 007°07'0 0.0
2017-May-19 12:58N 60°52' E 007°07'0 0.0
2017-May-19 12:28N 60°52' E 007°07'0 0.0
2017-May-19 11:58N 60°52' E 007°07'0 0.0
2017-May-19 11:28N 60°52' E 007°07'0 0.0
2017-May-19 10:58N 60°52' E 007°07'0 0.0
2017-May-19 10:28N 60°52' E 007°07'0 0.0
2017-May-19 09:58N 60°52' E 007°07'0 0.0
2017-May-19 09:28N 60°52' E 007°07'0 0.0
2017-May-19 08:58N 60°52' E 007°07'0 0.0
2017-May-19 08:28N 60°52' E 007°07'0 0.0
2017-May-19 07:58N 60°52' E 007°07'0 0.0
2017-May-19 07:28N 60°52' E 007°07'0 0.0
2017-May-19 06:58N 60°52' E 007°07'0 0.0
2017-May-19 06:28N 60°52' E 007°07'0 0.0
2017-May-19 05:58N 60°52' E 007°07'0 0.0
2017-May-19 05:30N 60°52' E 007°07'1 2.7
2017-May-19 05:00N 60°53' E 007°08'5 9.5
2017-May-19 04:30N 60°58' E 007°06'816.0
2017-May-19 04:00N 61°05' E 007°00'714.6
2017-May-19 03:30N 61°10' E 006°49'815.1
2017-May-19 03:00N 61°08' E 006°34'816.6
2017-May-19 02:30N 61°07' E 006°17'918.2
2017-May-19 02:00N 61°08' E 005°58'917.8
2017-May-19 01:30N 61°07' E 005°40'917.6
2017-May-19 01:00N 61°04' E 005°23'816.7
2017-May-19 00:30N 61°05' E 005°06'917.2
2017-May-19 00:00N 61°01' E 004°51'816.5
2017-May-18 23:30N 60°55' E 004°40'816.2
2017-May-18 23:00N 60°48' E 004°29'917.6
2017-May-18 22:30N 60°40' E 004°32'917.8
2017-May-18 22:00N 60°31' E 004°37'918.1
2017-May-18 21:30N 60°22' E 004°41'917.8
2017-May-18 21:00N 60°14' E 004°46'816.8
2017-May-18 20:30N 60°09' E 004°60'816.1
2017-May-18 20:00N 60°10' E 005°16'816.8
2017-May-18 19:30N 60°02' E 005°20'816.0
2017-May-18 19:00N 59°55' E 005°30'714.0
2017-May-18 18:30N 59°49' E 005°35'612.7
2017-May-18 18:00N 59°53' E 005°43'917.2
2017-May-18 17:30N 60°00' E 005°54'917.2
2017-May-18 17:00N 60°07' E 006°05'815.2
2017-May-18 16:30N 60°14' E 006°09'816.4
2017-May-18 16:00N 60°21' E 006°18'816.3
2017-May-18 15:31N 60°26' E 006°31'612.0
2017-May-18 15:00N 60°26' E 006°43'10 7.9
2017-May-18 13:44N 60°34' E 006°55'0 0.1
2017-May-18 13:20N 60°34' E 006°55'0 0.0
2017-May-18 12:38N 60°34' E 006°55'0 0.1
2017-May-18 12:26N 60°34' E 006°55'0 0.0
2017-May-18 11:56N 60°34' E 006°55'0 0.0
2017-May-18 11:23N 60°34' E 006°55'0 0.0
2017-May-18 10:59N 60°34' E 006°55'0 0.0
2017-May-18 10:29N 60°34' E 006°55'0 0.0
2017-May-18 09:53N 60°34' E 006°55'0 0.0
2017-May-18 09:29N 60°34' E 006°55'0 0.0
2017-May-18 08:50N 60°34' E 006°55'0 0.0
2017-May-18 08:29N 60°34' E 006°55'0 0.0
2017-May-18 07:50N 60°34' E 006°55'0 0.0
2017-May-18 07:26N 60°34' E 006°55'0 0.0
2017-May-18 06:59N 60°34' E 006°55'0 0.0
2017-May-18 05:11N 60°34' E 006°55'0 0.0
2017-May-18 04:59N 60°34' E 006°55'2 4.6
2017-May-18 04:30N 60°31' E 006°55'5 9.6
2017-May-18 04:00N 60°28' E 006°48'5 9.9
2017-May-18 03:30N 60°25' E 006°40'5 9.2
2017-May-18 03:00N 60°26' E 006°31'510.1
2017-May-18 02:30N 60°23' E 006°22'510.3
2017-May-18 02:00N 60°19' E 006°15'510.2
2017-May-18 01:29N 60°15' E 006°10'5 9.4
2017-May-18 01:00N 60°11' E 006°04'510.4
2017-May-18 00:30N 60°06' E 006°05'510.4
2017-May-18 00:00N 60°02' E 005°57'510.0
2017-May-17 23:30N 59°59' E 005°51'510.0
2017-May-17 23:00N 59°55' E 005°45'510.5
2017-May-17 22:30N 59°50' E 005°39'611.8
2017-May-17 22:00N 59°45' E 005°32'612.3
2017-May-17 21:30N 59°41' E 005°24'612.0
2017-May-17 21:00N 59°36' E 005°16'611.4
2017-May-17 20:30N 59°31' E 005°13'611.1
2017-May-17 20:00N 59°25' E 005°10'611.1
2017-May-17 19:30N 59°20' E 005°06'611.9
2017-May-17 18:57N 59°14' E 005°06'512.4
2017-May-17 18:30N 59°08' E 005°07'510.8
2017-May-17 18:00N 59°07' E 005°17'611.0
2017-May-17 17:30N 59°06' E 005°28'510.1
2017-May-17 17:00N 59°03' E 005°35'611.8
2017-May-17 16:30N 59°02' E 005°47'0 0.9
2017-May-17 16:00N 59°02' E 005°46'4 7.3
2017-May-17 15:30N 58°58' E 005°44'0 0.2
2017-May-17 14:59N 58°58' E 005°44'0 0.0
2017-May-17 13:59N 58°58' E 005°44'0 0.0
2017-May-17 13:29N 58°58' E 005°44'0 0.0
2017-May-17 12:59N 58°58' E 005°44'0 0.0
2017-May-17 12:29N 58°58' E 005°44'0 0.0
2017-May-17 11:59N 58°58' E 005°44'0 0.0
2017-May-17 11:29N 58°58' E 005°44'0 0.0
2017-May-17 10:59N 58°58' E 005°44'0 0.0
2017-May-17 10:29N 58°58' E 005°44'0 0.0
2017-May-17 09:59N 58°58' E 005°44'0 0.0
2017-May-17 09:29N 58°58' E 005°44'0 0.0
2017-May-17 08:59N 58°58' E 005°44'0 0.0
2017-May-17 08:29N 58°58' E 005°44'0 0.0
2017-May-17 07:59N 58°58' E 005°44'0 0.0
2017-May-17 07:29N 58°58' E 005°44'0 0.0
2017-May-17 06:59N 58°58' E 005°44'0 0.3
2017-May-17 06:31N 58°59' E 005°44'2 3.4
2017-May-17 06:00N 58°60' E 005°42'1 1.2
2017-May-17 05:31N 59°00' E 005°41'0 0.9
2017-May-17 05:01N 59°01' E 005°41'3 5.1
2017-May-17 04:31N 59°02' E 005°37'4 8.5
2017-May-17 04:00N 58°58' E 005°33'714.1
2017-May-17 03:31N 58°51' E 005°31'510.2
2017-May-17 03:01N 58°49' E 005°22'510.5
2017-May-17 02:30N 58°44' E 005°17'611.2
2017-May-17 02:01N 58°39' E 005°12'  

Dump ship's entire track history